createdAt,value
2022-10-18T00:00:46.715Z,101010.36
2022-10-18T00:06:11.119Z,101005.92
2022-10-18T00:11:14.272Z,101003.67
2022-10-18T00:16:18.251Z,101004.08
2022-10-18T00:21:23.538Z,100999.92
2022-10-18T00:26:29.685Z,101002.80
2022-10-18T00:31:35.966Z,101001.92
2022-10-18T00:36:39.481Z,101009.38
2022-10-18T00:41:43.409Z,101012.41
2022-10-18T00:46:49.712Z,101014.34
2022-10-18T00:51:55.968Z,101023.67
2022-10-18T00:56:59.688Z,101018.48
2022-10-18T01:02:03.252Z,101021.38
2022-10-18T01:07:21.053Z,101023.65
2022-10-18T01:12:42.284Z,101019.00
2022-10-18T01:17:45.390Z,101011.20
2022-10-18T01:22:50.951Z,100999.44
2022-10-18T01:28:45.383Z,100993.95
2022-10-18T01:33:56.058Z,100989.73
2022-10-18T01:39:02.365Z,100987.14
2022-10-18T01:44:10.786Z,100982.60
2022-10-18T01:49:14.271Z,100979.95
2022-10-18T01:54:27.923Z,100982.58
2022-10-18T01:59:56.630Z,100985.70
2022-10-18T02:05:24.617Z,100979.27
2022-10-18T02:10:34.456Z,100978.86
2022-10-18T02:15:44.448Z,100974.63
2022-10-18T02:20:49.402Z,100973.09
2022-10-18T02:25:53.835Z,100966.19
2022-10-18T02:31:13.941Z,100966.92
2022-10-18T02:36:33.837Z,100979.11
2022-10-18T02:41:37.148Z,100977.31
2022-10-18T02:46:40.867Z,100979.59
2022-10-18T02:51:44.076Z,100983.88
2022-10-18T02:56:46.956Z,100990.17
2022-10-18T03:01:50.335Z,100990.26
2022-10-18T03:06:53.289Z,100992.14
2022-10-18T03:11:56.396Z,101002.45
2022-10-18T03:16:59.398Z,101013.27
2022-10-18T03:22:02.504Z,101013.83
2022-10-18T03:27:05.507Z,101015.40
2022-10-18T03:32:08.716Z,101012.34
2022-10-18T03:37:12.436Z,101018.84
2022-10-18T03:42:15.541Z,101022.95
2022-10-18T03:47:19.060Z,101024.95
2022-10-18T03:52:22.264Z,101031.50
2022-10-18T03:57:25.577Z,101032.69
2022-10-18T04:02:28.932Z,101040.09
2022-10-18T04:07:32.454Z,101047.42
2022-10-18T04:12:35.823Z,101043.06
2022-10-18T04:17:40.150Z,101039.95
2022-10-18T04:22:44.183Z,101043.42
2022-10-18T04:27:47.898Z,101041.48
2022-10-18T04:32:51.002Z,101044.58
2022-10-18T04:37:54.313Z,101048.08
2022-10-18T04:42:57.521Z,101041.23
2022-10-18T04:48:01.344Z,101040.65
2022-10-18T04:53:04.551Z,101047.88
2022-10-18T04:58:07.451Z,101053.27
2022-10-18T05:03:13.221Z,101057.89
2022-10-18T05:08:16.432Z,101060.24
2022-10-18T05:13:19.539Z,101066.40
2022-10-18T05:18:22.742Z,101061.10
2022-10-18T05:23:25.652Z,101053.75
2022-10-18T05:28:44.106Z,101051.44
2022-10-18T05:33:47.419Z,101050.11
2022-10-18T05:38:50.937Z,101057.52
2022-10-18T05:43:54.041Z,101072.84
2022-10-18T05:48:57.277Z,101069.55
2022-10-18T05:54:01.382Z,101080.12
2022-10-18T05:59:12.415Z,101094.40
2022-10-18T06:04:18.038Z,101091.71
2022-10-18T06:09:21.242Z,101091.83
2022-10-18T06:14:24.655Z,101087.04
2022-10-18T06:19:27.968Z,101074.13
2022-10-18T06:24:30.864Z,101076.32
2022-10-18T06:29:34.073Z,101091.20
2022-10-18T06:34:37.178Z,101095.42
2022-10-18T06:39:41.318Z,101092.73
2022-10-18T06:44:44.722Z,101089.73
2022-10-18T06:49:48.237Z,101082.81
2022-10-18T06:54:52.779Z,101085.02
2022-10-18T06:59:55.881Z,101088.33
2022-10-18T07:04:58.835Z,101097.25
2022-10-18T07:10:01.823Z,101101.54
2022-10-18T07:15:09.473Z,101108.85
2022-10-18T07:20:13.123Z,101116.67
2022-10-18T07:25:16.939Z,101113.58
2022-10-18T07:30:20.352Z,101112.27
2022-10-18T07:35:23.499Z,101119.80
2022-10-18T07:40:26.873Z,101127.11
2022-10-18T07:45:30.521Z,101125.17
2022-10-18T07:50:34.209Z,101129.32
2022-10-18T07:55:37.522Z,101134.05
2022-10-18T08:00:40.931Z,101135.51
2022-10-18T08:05:44.046Z,101138.87
2022-10-18T08:10:47.652Z,101140.25
2022-10-18T08:15:50.678Z,101143.26
2022-10-18T08:20:53.968Z,101136.85
2022-10-18T08:25:57.279Z,101143.67
2022-10-18T08:31:13.081Z,101149.42
2022-10-18T08:36:17.930Z,101145.14
2022-10-18T08:41:45.611Z,101133.09
2022-10-18T08:46:55.375Z,101118.01
2022-10-18T08:51:59.194Z,101099.12
2022-10-18T08:57:11.413Z,101080.08
2022-10-18T09:02:39.611Z,101084.09
2022-10-18T09:07:45.390Z,101097.98
2022-10-18T09:13:18.894Z,101113.36
2022-10-18T09:18:40.556Z,101118.15
2022-10-18T09:24:06.576Z,101101.41
2022-10-18T09:29:27.910Z,101080.36
2022-10-18T09:34:58.054Z,101061.02
2022-10-18T09:40:18.168Z,101078.52
2022-10-18T09:45:38.154Z,101092.29
2022-10-18T09:50:46.893Z,101088.27
2022-10-18T09:56:02.287Z,101069.15
2022-10-18T10:01:06.750Z,101055.28
2022-10-18T10:06:12.701Z,101056.95
2022-10-18T10:11:45.907Z,101058.88
2022-10-18T10:16:48.910Z,101062.08
2022-10-18T10:21:56.830Z,101063.31
2022-10-18T10:27:07.179Z,101058.27
2022-10-18T10:32:14.225Z,101066.98
2022-10-18T10:37:25.603Z,101066.76
2022-10-18T10:42:29.088Z,101076.58
2022-10-18T10:47:34.578Z,101077.25
2022-10-18T10:52:40.578Z,101071.95
2022-10-18T10:57:50.283Z,101057.65
2022-10-18T11:03:27.301Z,101060.91
2022-10-18T11:08:41.398Z,101066.94
2022-10-18T11:13:57.031Z,101061.56
2022-10-18T11:20:01.114Z,101056.49
2022-10-18T11:25:06.879Z,101053.41
2022-10-18T11:30:24.934Z,101047.99
2022-10-18T11:35:47.803Z,101047.24
2022-10-18T11:41:12.943Z,101036.97
2022-10-18T11:46:31.201Z,101022.95
2022-10-18T11:52:09.357Z,101017.81
2022-10-18T11:57:40.268Z,101010.92
2022-10-18T12:03:21.673Z,101001.09
2022-10-18T12:08:33.894Z,100993.83
2022-10-18T12:13:46.727Z,100982.55
2022-10-18T12:19:02.940Z,100976.95
2022-10-18T12:24:16.356Z,100967.20
2022-10-18T12:29:27.787Z,100959.98
2022-10-18T12:34:47.174Z,100962.69
2022-10-18T12:40:15.788Z,100961.50
2022-10-18T12:45:28.804Z,100969.24
2022-10-18T12:50:39.398Z,100960.13
2022-10-18T12:55:48.849Z,100954.62
2022-10-18T13:00:55.162Z,100947.63
2022-10-18T13:06:01.780Z,100929.59
2022-10-18T13:11:09.133Z,100927.56
2022-10-18T13:16:41.112Z,100931.85
2022-10-18T13:22:02.545Z,100908.74
2022-10-18T13:27:46.460Z,100902.89
2022-10-18T13:32:52.795Z,100905.64
2022-10-18T13:38:00.297Z,100904.54
2022-10-18T13:43:41.087Z,100905.42
2022-10-18T13:48:51.460Z,100915.61
2022-10-18T13:54:03.474Z,100917.70
2022-10-18T13:59:25.574Z,100916.80
2022-10-18T14:04:43.169Z,100908.96
2022-10-18T14:09:56.103Z,100904.44
2022-10-18T14:15:17.440Z,100897.44
2022-10-18T14:20:32.718Z,100883.06
2022-10-18T14:25:39.423Z,100879.88
2022-10-18T14:31:10.190Z,100877.50
2022-10-18T14:36:19.524Z,100865.14
2022-10-18T14:41:27.135Z,100841.08
2022-10-18T14:46:31.819Z,100848.42
2022-10-18T14:51:37.038Z,100848.41
2022-10-18T14:56:43.042Z,100827.52
2022-10-18T15:01:57.171Z,100831.24
2022-10-18T15:07:03.716Z,100823.36
2022-10-18T15:12:08.251Z,100821.66
2022-10-18T15:17:20.111Z,100844.17
2022-10-18T15:22:31.900Z,100858.04
2022-10-18T15:27:38.950Z,100842.83
2022-10-18T15:32:52.671Z,100830.64
2022-10-18T15:37:58.731Z,100821.52
2022-10-18T15:43:26.024Z,100806.73
2022-10-18T15:48:41.556Z,100812.23
2022-10-18T15:53:52.609Z,100805.38
2022-10-18T15:58:57.537Z,100816.75
2022-10-18T16:04:05.350Z,100819.98
2022-10-18T16:09:16.055Z,100811.71
2022-10-18T16:14:21.646Z,100812.05
2022-10-18T16:19:25.033Z,100824.67
2022-10-18T16:24:28.238Z,100825.77
2022-10-18T16:29:33.296Z,100819.60
2022-10-18T16:34:36.701Z,100821.12
2022-10-18T16:39:40.121Z,100833.41
2022-10-18T16:44:44.040Z,100841.29
2022-10-18T16:49:49.513Z,100842.39
2022-10-18T16:54:53.223Z,100844.48
2022-10-18T16:59:56.227Z,100841.70
2022-10-18T17:04:59.434Z,100845.23
2022-10-18T17:10:02.753Z,100843.42
2022-10-18T17:15:09.546Z,100839.29
2022-10-18T17:20:23.809Z,100839.62
2022-10-18T17:25:28.623Z,100831.11
2022-10-18T17:30:32.377Z,100827.88
2022-10-18T17:35:36.007Z,100839.18
2022-10-18T17:40:43.332Z,100841.76
2022-10-18T17:45:53.808Z,100856.88
2022-10-18T17:50:57.703Z,100851.56
2022-10-18T17:56:05.224Z,100857.88
2022-10-18T18:01:22.150Z,100863.65
2022-10-18T18:06:35.224Z,100863.94
2022-10-18T18:11:39.612Z,100866.19
2022-10-18T18:16:46.387Z,100865.70
2022-10-18T18:21:54.240Z,100862.02
2022-10-18T18:26:58.560Z,100860.02
2022-10-18T18:32:03.509Z,100863.30
2022-10-18T18:37:08.356Z,100861.16
2022-10-18T18:42:13.017Z,100853.30
2022-10-18T18:52:22.186Z,100854.65
2022-10-18T18:57:25.797Z,100853.86
2022-10-18T19:02:29.210Z,100848.40
2022-10-18T19:07:32.766Z,100845.94
2022-10-18T19:12:36.854Z,100845.50
2022-10-18T19:17:39.890Z,100850.06
2022-10-18T19:22:44.232Z,100846.55
2022-10-18T19:27:48.989Z,100847.95
2022-10-18T19:32:59.830Z,100851.73
2022-10-18T19:38:06.512Z,100852.13
2022-10-18T19:43:10.135Z,100853.81
2022-10-18T19:48:13.627Z,100850.23
2022-10-18T19:53:17.386Z,100845.09
2022-10-18T19:58:20.687Z,100838.62
2022-10-18T20:03:24.718Z,100831.99
2022-10-18T20:08:31.344Z,100831.06
2022-10-18T20:13:35.429Z,100829.96
2022-10-18T20:18:39.555Z,100834.56
2022-10-18T20:23:44.404Z,100835.10
2022-10-18T20:28:49.528Z,100831.98
2022-10-18T20:34:04.743Z,100831.48
2022-10-18T20:39:08.743Z,100833.55
2022-10-18T20:44:14.548Z,100836.01
2022-10-18T20:49:17.743Z,100835.48
2022-10-18T20:54:20.960Z,100827.05
2022-10-18T20:59:23.957Z,100814.02
2022-10-18T21:04:27.367Z,100809.86
2022-10-18T21:09:30.575Z,100811.01
2022-10-18T21:14:33.782Z,100812.27
2022-10-18T21:19:37.766Z,100801.39
2022-10-18T21:24:42.763Z,100795.69
2022-10-18T21:29:45.968Z,100797.88
2022-10-18T21:34:49.073Z,100791.06
2022-10-18T21:39:52.075Z,100788.32
2022-10-18T21:44:55.285Z,100791.92
2022-10-18T21:49:58.286Z,100791.30
2022-10-18T21:55:01.397Z,100783.29
2022-10-18T22:00:07.126Z,100773.74
2022-10-18T22:05:12.210Z,100770.55
2022-10-18T22:10:15.625Z,100768.81
2022-10-18T22:15:18.833Z,100760.09
2022-10-18T22:20:22.349Z,100760.30
2022-10-18T22:25:25.454Z,100750.82
2022-10-18T22:30:28.869Z,100746.70
2022-10-18T22:35:33.205Z,100730.13
2022-10-18T22:40:36.719Z,100721.88
2022-10-18T22:45:40.807Z,100706.45
2022-10-18T22:50:43.849Z,100694.60
2022-10-18T22:55:49.002Z,100697.04
2022-10-18T23:01:26.928Z,100697.27
2022-10-18T23:06:31.674Z,100705.83
2022-10-18T23:11:36.540Z,100702.33
2022-10-18T23:16:39.826Z,100697.84
2022-10-18T23:21:43.853Z,100688.90
2022-10-18T23:26:47.062Z,100685.84
2022-10-18T23:31:50.166Z,100692.40
2022-10-18T23:36:53.274Z,100682.88
2022-10-18T23:41:56.480Z,100678.60
2022-10-18T23:47:00.100Z,100673.49
2022-10-18T23:52:03.409Z,100663.66
2022-10-18T23:57:06.412Z,100668.46
